sensor_id;sensor_type;location;lat;lon;timestamp;P1;durP1;ratioP1;P2;durP2;ratioP2
53801;SDS011;39709;53.334;6.534;2023-04-15T00:00:48;6.03;;;2.20;;
53801;SDS011;39709;53.334;6.534;2023-04-15T00:03:16;10.68;;;4.00;;
53801;SDS011;39709;53.334;6.534;2023-04-15T00:05:43;10.93;;;3.92;;
53801;SDS011;39709;53.334;6.534;2023-04-15T00:08:08;11.32;;;4.07;;
53801;SDS011;39709;53.334;6.534;2023-04-15T00:10:34;10.10;;;2.93;;
53801;SDS011;39709;53.334;6.534;2023-04-15T00:13:00;12.13;;;4.50;;
53801;SDS011;39709;53.334;6.534;2023-04-15T00:15:26;17.42;;;5.10;;
53801;SDS011;39709;53.334;6.534;2023-04-15T00:17:52;11.07;;;3.75;;
53801;SDS011;39709;53.334;6.534;2023-04-15T00:20:18;10.30;;;3.97;;
53801;SDS011;39709;53.334;6.534;2023-04-15T00:22:43;9.60;;;3.90;;
53801;SDS011;39709;53.334;6.534;2023-04-15T00:25:10;8.90;;;3.05;;
53801;SDS011;39709;53.334;6.534;2023-04-15T00:27:36;7.77;;;3.27;;
53801;SDS011;39709;53.334;6.534;2023-04-15T00:30:02;10.73;;;4.35;;
53801;SDS011;39709;53.334;6.534;2023-04-15T00:32:29;10.25;;;4.22;;
53801;SDS011;39709;53.334;6.534;2023-04-15T00:34:55;12.40;;;5.33;;
53801;SDS011;39709;53.334;6.534;2023-04-15T00:37:21;14.48;;;5.25;;
53801;SDS011;39709;53.334;6.534;2023-04-15T00:39:47;7.60;;;2.13;;
53801;SDS011;39709;53.334;6.534;2023-04-15T00:42:13;6.40;;;2.17;;
53801;SDS011;39709;53.334;6.534;2023-04-15T00:44:39;10.20;;;0.85;;
53801;SDS011;39709;53.334;6.534;2023-04-15T00:47:05;4.40;;;1.03;;
53801;SDS011;39709;53.334;6.534;2023-04-15T00:49:31;4.50;;;0.70;;
53801;SDS011;39709;53.334;6.534;2023-04-15T00:51:57;7.63;;;3.13;;
53801;SDS011;39709;53.334;6.534;2023-04-15T00:54:22;7.73;;;2.63;;
53801;SDS011;39709;53.334;6.534;2023-04-15T00:56:48;15.50;;;5.60;;
53801;SDS011;39709;53.334;6.534;2023-04-15T00:59:14;6.70;;;2.50;;
53801;SDS011;39709;53.334;6.534;2023-04-15T01:01:41;8.77;;;2.90;;
53801;SDS011;39709;53.334;6.534;2023-04-15T01:04:09;15.10;;;6.10;;
53801;SDS011;39709;53.334;6.534;2023-04-15T01:06:36;15.90;;;7.18;;
53801;SDS011;39709;53.334;6.534;2023-04-15T01:09:01;16.97;;;6.00;;
53801;SDS011;39709;53.334;6.534;2023-04-15T01:11:29;10.05;;;2.03;;
53801;SDS011;39709;53.334;6.534;2023-04-15T01:13:57;10.77;;;3.30;;
53801;SDS011;39709;53.334;6.534;2023-04-15T01:16:23;4.00;;;1.05;;
53801;SDS011;39709;53.334;6.534;2023-04-15T01:18:49;5.40;;;1.57;;
53801;SDS011;39709;53.334;6.534;2023-04-15T01:21:14;4.03;;;1.52;;
53801;SDS011;39709;53.334;6.534;2023-04-15T01:23:40;2.55;;;0.50;;
53801;SDS011;39709;53.334;6.534;2023-04-15T01:26:08;4.50;;;1.63;;
53801;SDS011;39709;53.334;6.534;2023-04-15T01:28:35;8.32;;;2.33;;
53801;SDS011;39709;53.334;6.534;2023-04-15T01:31:14;10.35;;;3.22;;
53801;SDS011;39709;53.334;6.534;2023-04-15T01:33:40;15.18;;;5.43;;
53801;SDS011;39709;53.334;6.534;2023-04-15T01:36:07;16.92;;;7.43;;
53801;SDS011;39709;53.334;6.534;2023-04-15T01:38:35;14.43;;;6.37;;
53801;SDS011;39709;53.334;6.534;2023-04-15T01:41:01;7.25;;;2.70;;
53801;SDS011;39709;53.334;6.534;2023-04-15T01:43:32;11.70;;;4.53;;
53801;SDS011;39709;53.334;6.534;2023-04-15T01:45:58;11.10;;;4.35;;
53801;SDS011;39709;53.334;6.534;2023-04-15T01:48:24;6.23;;;1.90;;
53801;SDS011;39709;53.334;6.534;2023-04-15T01:50:51;7.63;;;3.22;;
53801;SDS011;39709;53.334;6.534;2023-04-15T01:53:17;14.77;;;4.68;;
53801;SDS011;39709;53.334;6.534;2023-04-15T01:55:43;6.57;;;2.63;;
53801;SDS011;39709;53.334;6.534;2023-04-15T01:58:08;9.18;;;3.05;;
53801;SDS011;39709;53.334;6.534;2023-04-15T02:00:34;12.73;;;5.37;;
53801;SDS011;39709;53.334;6.534;2023-04-15T02:03:00;13.43;;;6.22;;
53801;SDS011;39709;53.334;6.534;2023-04-15T02:05:26;11.73;;;4.37;;
53801;SDS011;39709;53.334;6.534;2023-04-15T02:07:52;13.65;;;5.68;;
53801;SDS011;39709;53.334;6.534;2023-04-15T02:10:18;14.27;;;5.23;;
53801;SDS011;39709;53.334;6.534;2023-04-15T02:12:43;13.27;;;6.00;;
53801;SDS011;39709;53.334;6.534;2023-04-15T02:15:09;16.65;;;6.50;;
53801;SDS011;39709;53.334;6.534;2023-04-15T02:17:35;14.27;;;6.50;;
53801;SDS011;39709;53.334;6.534;2023-04-15T02:20:02;13.25;;;6.63;;
53801;SDS011;39709;53.334;6.534;2023-04-15T02:22:33;14.65;;;6.43;;
53801;SDS011;39709;53.334;6.534;2023-04-15T02:24:58;12.18;;;5.95;;
53801;SDS011;39709;53.334;6.534;2023-04-15T02:27:24;13.13;;;6.07;;
53801;SDS011;39709;53.334;6.534;2023-04-15T02:29:50;16.95;;;7.05;;
53801;SDS011;39709;53.334;6.534;2023-04-15T02:32:16;13.57;;;6.93;;
53801;SDS011;39709;53.334;6.534;2023-04-15T02:34:42;15.73;;;7.38;;
53801;SDS011;39709;53.334;6.534;2023-04-15T02:37:09;16.90;;;7.00;;
53801;SDS011;39709;53.334;6.534;2023-04-15T02:39:36;15.23;;;7.25;;
53801;SDS011;39709;53.334;6.534;2023-04-15T02:42:02;15.63;;;7.00;;
53801;SDS011;39709;53.334;6.534;2023-04-15T02:44:29;17.17;;;7.03;;
53801;SDS011;39709;53.334;6.534;2023-04-15T02:46:55;18.23;;;8.52;;
53801;SDS011;39709;53.334;6.534;2023-04-15T02:49:22;18.00;;;8.13;;
53801;SDS011;39709;53.334;6.534;2023-04-15T02:51:48;17.75;;;8.07;;
53801;SDS011;39709;53.334;6.534;2023-04-15T02:54:15;17.30;;;8.13;;
53801;SDS011;39709;53.334;6.534;2023-04-15T02:56:41;16.48;;;8.25;;
53801;SDS011;39709;53.334;6.534;2023-04-15T02:59:07;16.50;;;7.93;;
53801;SDS011;39709;53.334;6.534;2023-04-15T03:01:32;20.13;;;9.00;;
53801;SDS011;39709;53.334;6.534;2023-04-15T03:03:58;19.63;;;9.00;;
53801;SDS011;39709;53.334;6.534;2023-04-15T03:06:24;21.00;;;9.10;;
53801;SDS011;39709;53.334;6.534;2023-04-15T03:08:50;20.95;;;9.15;;
53801;SDS011;39709;53.334;6.534;2023-04-15T03:11:16;18.30;;;8.47;;
53801;SDS011;39709;53.334;6.534;2023-04-15T03:13:42;21.83;;;8.95;;
53801;SDS011;39709;53.334;6.534;2023-04-15T03:16:08;19.85;;;9.30;;
53801;SDS011;39709;53.334;6.534;2023-04-15T03:18:34;17.73;;;8.55;;
53801;SDS011;39709;53.334;6.534;2023-04-15T03:21:00;18.97;;;9.13;;
53801;SDS011;39709;53.334;6.534;2023-04-15T03:23:26;20.77;;;9.13;;
53801;SDS011;39709;53.334;6.534;2023-04-15T03:25:52;19.00;;;9.38;;
53801;SDS011;39709;53.334;6.534;2023-04-15T03:28:21;20.23;;;9.25;;
53801;SDS011;39709;53.334;6.534;2023-04-15T03:30:46;19.90;;;9.30;;
53801;SDS011;39709;53.334;6.534;2023-04-15T03:33:12;21.10;;;10.57;;
53801;SDS011;39709;53.334;6.534;2023-04-15T03:35:38;23.08;;;10.43;;
53801;SDS011;39709;53.334;6.534;2023-04-15T03:38:03;19.67;;;9.67;;
53801;SDS011;39709;53.334;6.534;2023-04-15T03:40:29;22.83;;;10.82;;
53801;SDS011;39709;53.334;6.534;2023-04-15T03:42:55;21.90;;;11.23;;
53801;SDS011;39709;53.334;6.534;2023-04-15T03:45:20;25.20;;;10.30;;
53801;SDS011;39709;53.334;6.534;2023-04-15T03:47:46;22.20;;;10.33;;
53801;SDS011;39709;53.334;6.534;2023-04-15T03:50:13;23.00;;;10.52;;
53801;SDS011;39709;53.334;6.534;2023-04-15T03:52:39;24.20;;;11.85;;
53801;SDS011;39709;53.334;6.534;2023-04-15T03:55:05;24.27;;;11.65;;
53801;SDS011;39709;53.334;6.534;2023-04-15T03:57:32;25.17;;;12.73;;
53801;SDS011;39709;53.334;6.534;2023-04-15T04:00:02;24.55;;;11.45;;
53801;SDS011;39709;53.334;6.534;2023-04-15T04:02:29;30.70;;;13.05;;
53801;SDS011;39709;53.334;6.534;2023-04-15T04:04:54;24.95;;;12.10;;
53801;SDS011;39709;53.334;6.534;2023-04-15T04:07:22;25.33;;;11.63;;
53801;SDS011;39709;53.334;6.534;2023-04-15T04:09:48;29.95;;;13.48;;
53801;SDS011;39709;53.334;6.534;2023-04-15T04:12:14;27.90;;;13.13;;
53801;SDS011;39709;53.334;6.534;2023-04-15T04:14:40;25.23;;;11.85;;
53801;SDS011;39709;53.334;6.534;2023-04-15T04:17:06;27.00;;;12.23;;
53801;SDS011;39709;53.334;6.534;2023-04-15T04:19:31;23.33;;;11.43;;
53801;SDS011;39709;53.334;6.534;2023-04-15T04:21:57;25.52;;;11.65;;
53801;SDS011;39709;53.334;6.534;2023-04-15T04:24:23;21.73;;;10.47;;
53801;SDS011;39709;53.334;6.534;2023-04-15T04:26:48;25.35;;;11.90;;
53801;SDS011;39709;53.334;6.534;2023-04-15T04:29:14;22.47;;;10.87;;
53801;SDS011;39709;53.334;6.534;2023-04-15T04:31:40;27.08;;;11.63;;
53801;SDS011;39709;53.334;6.534;2023-04-15T04:34:06;22.67;;;10.47;;
53801;SDS011;39709;53.334;6.534;2023-04-15T04:36:31;23.83;;;10.70;;
53801;SDS011;39709;53.334;6.534;2023-04-15T04:38:57;22.23;;;9.98;;
53801;SDS011;39709;53.334;6.534;2023-04-15T04:41:23;20.77;;;10.13;;
53801;SDS011;39709;53.334;6.534;2023-04-15T04:43:48;20.97;;;9.43;;
53801;SDS011;39709;53.334;6.534;2023-04-15T04:46:14;21.75;;;10.13;;
53801;SDS011;39709;53.334;6.534;2023-04-15T04:48:40;18.67;;;9.10;;
53801;SDS011;39709;53.334;6.534;2023-04-15T04:51:05;25.48;;;10.60;;
53801;SDS011;39709;53.334;6.534;2023-04-15T04:53:32;18.10;;;8.53;;
53801;SDS011;39709;53.334;6.534;2023-04-15T04:55:58;20.98;;;9.48;;
53801;SDS011;39709;53.334;6.534;2023-04-15T04:58:23;20.58;;;9.52;;
53801;SDS011;39709;53.334;6.534;2023-04-15T05:00:49;20.87;;;9.77;;
53801;SDS011;39709;53.334;6.534;2023-04-15T05:03:15;18.55;;;10.02;;
53801;SDS011;39709;53.334;6.534;2023-04-15T05:05:41;21.67;;;9.47;;
53801;SDS011;39709;53.334;6.534;2023-04-15T05:08:07;24.27;;;9.45;;
53801;SDS011;39709;53.334;6.534;2023-04-15T05:10:33;21.57;;;9.23;;
53801;SDS011;39709;53.334;6.534;2023-04-15T05:12:58;21.17;;;9.30;;
53801;SDS011;39709;53.334;6.534;2023-04-15T05:15:24;21.10;;;9.93;;
53801;SDS011;39709;53.334;6.534;2023-04-15T05:17:50;21.35;;;9.95;;
53801;SDS011;39709;53.334;6.534;2023-04-15T05:20:15;21.43;;;10.30;;
53801;SDS011;39709;53.334;6.534;2023-04-15T05:22:41;26.02;;;11.10;;
53801;SDS011;39709;53.334;6.534;2023-04-15T05:25:07;24.03;;;11.13;;
53801;SDS011;39709;53.334;6.534;2023-04-15T05:27:33;26.92;;;12.60;;
53801;SDS011;39709;53.334;6.534;2023-04-15T05:29:59;32.33;;;12.93;;
53801;SDS011;39709;53.334;6.534;2023-04-15T05:32:24;35.22;;;14.57;;
53801;SDS011;39709;53.334;6.534;2023-04-15T05:34:50;35.97;;;13.60;;
53801;SDS011;39709;53.334;6.534;2023-04-15T05:37:16;30.95;;;13.95;;
53801;SDS011;39709;53.334;6.534;2023-04-15T05:39:42;32.37;;;13.80;;
53801;SDS011;39709;53.334;6.534;2023-04-15T05:42:08;30.48;;;13.15;;
53801;SDS011;39709;53.334;6.534;2023-04-15T05:44:33;33.47;;;14.85;;
53801;SDS011;39709;53.334;6.534;2023-04-15T05:46:59;28.67;;;12.20;;
53801;SDS011;39709;53.334;6.534;2023-04-15T05:49:25;31.05;;;13.30;;
53801;SDS011;39709;53.334;6.534;2023-04-15T05:51:51;28.42;;;11.73;;
53801;SDS011;39709;53.334;6.534;2023-04-15T05:54:17;25.73;;;11.30;;
53801;SDS011;39709;53.334;6.534;2023-04-15T05:56:42;28.38;;;14.25;;
53801;SDS011;39709;53.334;6.534;2023-04-15T05:59:08;24.17;;;10.90;;
53801;SDS011;39709;53.334;6.534;2023-04-15T06:01:34;21.90;;;10.27;;
53801;SDS011;39709;53.334;6.534;2023-04-15T06:03:59;22.80;;;9.67;;
53801;SDS011;39709;53.334;6.534;2023-04-15T06:06:25;24.83;;;12.43;;
53801;SDS011;39709;53.334;6.534;2023-04-15T06:08:51;22.60;;;9.40;;
53801;SDS011;39709;53.334;6.534;2023-04-15T06:11:17;26.20;;;9.65;;
53801;SDS011;39709;53.334;6.534;2023-04-15T06:13:45;22.08;;;10.13;;
53801;SDS011;39709;53.334;6.534;2023-04-15T06:16:11;23.90;;;11.50;;
53801;SDS011;39709;53.334;6.534;2023-04-15T06:18:36;26.85;;;12.07;;
53801;SDS011;39709;53.334;6.534;2023-04-15T06:21:02;25.93;;;10.70;;
53801;SDS011;39709;53.334;6.534;2023-04-15T06:23:28;28.02;;;13.82;;
53801;SDS011;39709;53.334;6.534;2023-04-15T06:25:54;25.45;;;12.38;;
53801;SDS011;39709;53.334;6.534;2023-04-15T06:28:20;27.37;;;13.40;;
53801;SDS011;39709;53.334;6.534;2023-04-15T06:30:45;26.38;;;14.27;;
53801;SDS011;39709;53.334;6.534;2023-04-15T06:33:11;26.53;;;14.60;;
53801;SDS011;39709;53.334;6.534;2023-04-15T06:35:37;22.17;;;13.77;;
53801;SDS011;39709;53.334;6.534;2023-04-15T06:38:03;24.48;;;12.80;;
53801;SDS011;39709;53.334;6.534;2023-04-15T06:40:29;23.33;;;10.33;;
53801;SDS011;39709;53.334;6.534;2023-04-15T06:42:55;20.67;;;10.07;;
53801;SDS011;39709;53.334;6.534;2023-04-15T06:45:21;22.92;;;11.48;;
53801;SDS011;39709;53.334;6.534;2023-04-15T06:47:46;23.87;;;11.53;;
53801;SDS011;39709;53.334;6.534;2023-04-15T06:50:12;21.45;;;11.95;;
53801;SDS011;39709;53.334;6.534;2023-04-15T06:52:38;21.77;;;10.40;;
53801;SDS011;39709;53.334;6.534;2023-04-15T06:55:04;21.30;;;9.83;;
53801;SDS011;39709;53.334;6.534;2023-04-15T06:57:31;20.08;;;8.30;;
53801;SDS011;39709;53.334;6.534;2023-04-15T06:59:56;19.25;;;9.18;;
53801;SDS011;39709;53.334;6.534;2023-04-15T07:02:22;16.33;;;8.47;;
53801;SDS011;39709;53.334;6.534;2023-04-15T07:04:48;13.40;;;5.30;;
53801;SDS011;39709;53.334;6.534;2023-04-15T07:07:13;11.50;;;5.80;;
53801;SDS011;39709;53.334;6.534;2023-04-15T07:09:40;13.48;;;6.18;;
53801;SDS011;39709;53.334;6.534;2023-04-15T07:12:06;13.50;;;5.65;;
53801;SDS011;39709;53.334;6.534;2023-04-15T07:14:32;13.50;;;6.73;;
53801;SDS011;39709;53.334;6.534;2023-04-15T07:16:58;12.98;;;7.32;;
53801;SDS011;39709;53.334;6.534;2023-04-15T07:19:23;15.20;;;6.47;;
53801;SDS011;39709;53.334;6.534;2023-04-15T07:21:50;14.02;;;7.15;;
53801;SDS011;39709;53.334;6.534;2023-04-15T07:24:15;15.20;;;8.37;;
53801;SDS011;39709;53.334;6.534;2023-04-15T07:26:44;15.65;;;6.90;;
53801;SDS011;39709;53.334;6.534;2023-04-15T07:29:09;17.10;;;7.15;;
53801;SDS011;39709;53.334;6.534;2023-04-15T07:31:36;15.25;;;7.50;;
53801;SDS011;39709;53.334;6.534;2023-04-15T07:34:05;15.87;;;7.37;;
53801;SDS011;39709;53.334;6.534;2023-04-15T07:36:31;12.40;;;5.93;;
53801;SDS011;39709;53.334;6.534;2023-04-15T07:38:56;15.38;;;7.82;;
53801;SDS011;39709;53.334;6.534;2023-04-15T07:41:22;14.50;;;7.20;;
53801;SDS011;39709;53.334;6.534;2023-04-15T07:43:48;16.17;;;7.97;;
53801;SDS011;39709;53.334;6.534;2023-04-15T07:46:14;16.95;;;8.45;;
53801;SDS011;39709;53.334;6.534;2023-04-15T07:48:40;17.45;;;8.80;;
53801;SDS011;39709;53.334;6.534;2023-04-15T07:51:06;16.63;;;7.45;;
53801;SDS011;39709;53.334;6.534;2023-04-15T07:53:32;12.88;;;5.82;;
53801;SDS011;39709;53.334;6.534;2023-04-15T07:55:58;14.37;;;7.07;;
53801;SDS011;39709;53.334;6.534;2023-04-15T07:58:24;14.23;;;4.50;;
53801;SDS011;39709;53.334;6.534;2023-04-15T08:00:50;13.77;;;6.18;;
53801;SDS011;39709;53.334;6.534;2023-04-15T08:03:16;11.63;;;5.95;;
53801;SDS011;39709;53.334;6.534;2023-04-15T08:05:41;13.13;;;6.07;;
53801;SDS011;39709;53.334;6.534;2023-04-15T08:08:07;10.18;;;4.55;;
53801;SDS011;39709;53.334;6.534;2023-04-15T08:10:33;9.83;;;4.80;;
53801;SDS011;39709;53.334;6.534;2023-04-15T08:12:58;11.00;;;4.68;;
53801;SDS011;39709;53.334;6.534;2023-04-15T08:15:25;10.67;;;3.93;;
53801;SDS011;39709;53.334;6.534;2023-04-15T08:17:51;10.60;;;3.78;;
53801;SDS011;39709;53.334;6.534;2023-04-15T08:20:17;9.02;;;3.00;;
53801;SDS011;39709;53.334;6.534;2023-04-15T08:22:43;10.33;;;3.07;;
53801;SDS011;39709;53.334;6.534;2023-04-15T08:25:08;8.97;;;3.43;;
53801;SDS011;39709;53.334;6.534;2023-04-15T08:27:34;10.52;;;3.88;;
53801;SDS011;39709;53.334;6.534;2023-04-15T08:30:00;10.40;;;3.30;;
53801;SDS011;39709;53.334;6.534;2023-04-15T08:32:26;9.40;;;3.40;;
53801;SDS011;39709;53.334;6.534;2023-04-15T08:34:52;10.40;;;3.20;;
53801;SDS011;39709;53.334;6.534;2023-04-15T08:37:18;8.03;;;3.10;;
53801;SDS011;39709;53.334;6.534;2023-04-15T08:39:44;6.35;;;2.15;;
53801;SDS011;39709;53.334;6.534;2023-04-15T08:42:16;8.55;;;2.70;;
53801;SDS011;39709;53.334;6.534;2023-04-15T08:44:47;7.90;;;3.23;;
53801;SDS011;39709;53.334;6.534;2023-04-15T08:47:13;10.60;;;3.58;;
53801;SDS011;39709;53.334;6.534;2023-04-15T08:49:42;11.32;;;3.05;;
53801;SDS011;39709;53.334;6.534;2023-04-15T08:52:08;10.18;;;3.28;;
53801;SDS011;39709;53.334;6.534;2023-04-15T08:54:34;11.87;;;3.93;;
53801;SDS011;39709;53.334;6.534;2023-04-15T08:57:00;10.45;;;3.90;;
53801;SDS011;39709;53.334;6.534;2023-04-15T08:59:29;11.40;;;3.20;;
53801;SDS011;39709;53.334;6.534;2023-04-15T09:01:56;11.05;;;3.45;;
53801;SDS011;39709;53.334;6.534;2023-04-15T09:04:22;11.70;;;3.20;;
53801;SDS011;39709;53.334;6.534;2023-04-15T09:06:48;11.63;;;2.58;;
53801;SDS011;39709;53.334;6.534;2023-04-15T09:09:14;9.35;;;2.33;;
53801;SDS011;39709;53.334;6.534;2023-04-15T09:11:40;10.03;;;2.50;;
53801;SDS011;39709;53.334;6.534;2023-04-15T09:14:06;9.10;;;1.80;;
53801;SDS011;39709;53.334;6.534;2023-04-15T09:16:54;7.60;;;1.63;;
53801;SDS011;39709;53.334;6.534;2023-04-15T09:19:22;8.23;;;2.07;;
53801;SDS011;39709;53.334;6.534;2023-04-15T09:21:49;7.93;;;1.70;;
53801;SDS011;39709;53.334;6.534;2023-04-15T09:24:17;10.05;;;2.10;;
53801;SDS011;39709;53.334;6.534;2023-04-15T09:26:43;4.47;;;1.07;;
53801;SDS011;39709;53.334;6.534;2023-04-15T09:29:10;5.90;;;1.40;;
53801;SDS011;39709;53.334;6.534;2023-04-15T09:31:39;6.00;;;1.50;;
53801;SDS011;39709;53.334;6.534;2023-04-15T09:34:05;5.80;;;1.15;;
53801;SDS011;39709;53.334;6.534;2023-04-15T09:39:13;6.70;;;1.00;;
53801;SDS011;39709;53.334;6.534;2023-04-15T09:41:39;5.20;;;1.10;;
53801;SDS011;39709;53.334;6.534;2023-04-15T09:44:05;4.35;;;1.05;;
53801;SDS011;39709;53.334;6.534;2023-04-15T09:46:40;6.53;;;1.27;;
53801;SDS011;39709;53.334;6.534;2023-04-15T09:49:07;5.70;;;1.33;;
53801;SDS011;39709;53.334;6.534;2023-04-15T09:51:37;4.72;;;1.20;;
53801;SDS011;39709;53.334;6.534;2023-04-15T09:54:03;6.10;;;1.30;;
53801;SDS011;39709;53.334;6.534;2023-04-15T09:56:36;6.47;;;1.55;;
53801;SDS011;39709;53.334;6.534;2023-04-15T09:59:05;7.60;;;1.83;;
53801;SDS011;39709;53.334;6.534;2023-04-15T10:01:31;9.65;;;1.77;;
53801;SDS011;39709;53.334;6.534;2023-04-15T10:03:57;7.25;;;1.50;;
53801;SDS011;39709;53.334;6.534;2023-04-15T10:06:26;6.55;;;1.45;;
53801;SDS011;39709;53.334;6.534;2023-04-15T10:08:53;5.73;;;1.30;;
53801;SDS011;39709;53.334;6.534;2023-04-15T10:11:20;7.93;;;1.85;;
53801;SDS011;39709;53.334;6.534;2023-04-15T10:13:48;6.70;;;1.50;;
53801;SDS011;39709;53.334;6.534;2023-04-15T10:16:15;7.28;;;2.17;;
53801;SDS011;39709;53.334;6.534;2023-04-15T10:18:51;10.20;;;2.03;;
53801;SDS011;39709;53.334;6.534;2023-04-15T10:21:20;6.00;;;1.60;;
53801;SDS011;39709;53.334;6.534;2023-04-15T10:23:47;8.90;;;2.13;;
53801;SDS011;39709;53.334;6.534;2023-04-15T10:26:14;8.93;;;1.75;;
53801;SDS011;39709;53.334;6.534;2023-04-15T10:28:41;8.57;;;1.80;;
53801;SDS011;39709;53.334;6.534;2023-04-15T10:31:11;9.73;;;2.20;;
53801;SDS011;39709;53.334;6.534;2023-04-15T10:33:38;7.20;;;1.97;;
53801;SDS011;39709;53.334;6.534;2023-04-15T10:36:06;8.00;;;1.73;;
53801;SDS011;39709;53.334;6.534;2023-04-15T10:38:39;5.75;;;1.65;;
53801;SDS011;39709;53.334;6.534;2023-04-15T10:43:45;6.53;;;2.10;;
53801;SDS011;39709;53.334;6.534;2023-04-15T10:46:37;6.00;;;1.93;;
53801;SDS011;39709;53.334;6.534;2023-04-15T10:51:37;6.30;;;1.80;;
53801;SDS011;39709;53.334;6.534;2023-04-15T10:54:13;7.20;;;1.50;;
53801;SDS011;39709;53.334;6.534;2023-04-15T10:59:29;8.87;;;1.43;;
53801;SDS011;39709;53.334;6.534;2023-04-15T11:01:56;6.95;;;1.20;;
53801;SDS011;39709;53.334;6.534;2023-04-15T11:12:38;10.00;;;1.50;;
53801;SDS011;39709;53.334;6.534;2023-04-15T11:18:08;6.78;;;1.38;;
53801;SDS011;39709;53.334;6.534;2023-04-15T11:20:38;8.57;;;1.80;;
53801;SDS011;39709;53.334;6.534;2023-04-15T11:23:04;5.90;;;1.35;;
53801;SDS011;39709;53.334;6.534;2023-04-15T11:25:31;7.20;;;1.35;;
53801;SDS011;39709;53.334;6.534;2023-04-15T11:27:59;7.32;;;1.48;;
53801;SDS011;39709;53.334;6.534;2023-04-15T11:30:26;8.05;;;1.40;;
53801;SDS011;39709;53.334;6.534;2023-04-15T11:32:54;9.00;;;1.40;;
53801;SDS011;39709;53.334;6.534;2023-04-15T11:35:23;8.95;;;1.60;;
53801;SDS011;39709;53.334;6.534;2023-04-15T11:37:48;11.75;;;1.95;;
53801;SDS011;39709;53.334;6.534;2023-04-15T11:40:15;9.63;;;1.63;;
53801;SDS011;39709;53.334;6.534;2023-04-15T11:42:45;4.97;;;0.93;;
53801;SDS011;39709;53.334;6.534;2023-04-15T11:45:12;10.55;;;1.55;;
53801;SDS011;39709;53.334;6.534;2023-04-15T11:47:40;11.40;;;2.22;;
53801;SDS011;39709;53.334;6.534;2023-04-15T11:50:19;8.18;;;1.20;;
53801;SDS011;39709;53.334;6.534;2023-04-15T11:55:22;8.85;;;1.35;;
53801;SDS011;39709;53.334;6.534;2023-04-15T11:58:11;9.27;;;1.40;;
53801;SDS011;39709;53.334;6.534;2023-04-15T12:00:36;7.18;;;1.40;;
53801;SDS011;39709;53.334;6.534;2023-04-15T12:03:10;11.25;;;1.60;;
53801;SDS011;39709;53.334;6.534;2023-04-15T12:11:33;8.90;;;1.20;;
53801;SDS011;39709;53.334;6.534;2023-04-15T12:14:08;9.88;;;1.00;;
53801;SDS011;39709;53.334;6.534;2023-04-15T12:16:35;9.05;;;1.42;;
53801;SDS011;39709;53.334;6.534;2023-04-15T12:19:08;11.70;;;1.20;;
53801;SDS011;39709;53.334;6.534;2023-04-15T12:21:37;8.20;;;1.15;;
53801;SDS011;39709;53.334;6.534;2023-04-15T12:24:04;9.20;;;1.13;;
53801;SDS011;39709;53.334;6.534;2023-04-15T12:26:34;10.10;;;1.40;;
53801;SDS011;39709;53.334;6.534;2023-04-15T12:29:06;12.63;;;2.25;;
53801;SDS011;39709;53.334;6.534;2023-04-15T12:31:35;11.70;;;1.37;;
53801;SDS011;39709;53.334;6.534;2023-04-15T12:34:02;6.32;;;1.10;;
53801;SDS011;39709;53.334;6.534;2023-04-15T12:36:31;9.10;;;1.20;;
53801;SDS011;39709;53.334;6.534;2023-04-15T12:39:03;11.52;;;2.28;;
53801;SDS011;39709;53.334;6.534;2023-04-15T12:41:29;8.48;;;1.30;;
53801;SDS011;39709;53.334;6.534;2023-04-15T12:43:56;11.60;;;1.27;;
53801;SDS011;39709;53.334;6.534;2023-04-15T12:46:21;11.25;;;1.73;;
53801;SDS011;39709;53.334;6.534;2023-04-15T12:48:47;9.90;;;1.40;;
53801;SDS011;39709;53.334;6.534;2023-04-15T12:51:14;11.13;;;2.20;;
53801;SDS011;39709;53.334;6.534;2023-04-15T12:53:39;11.32;;;1.30;;
53801;SDS011;39709;53.334;6.534;2023-04-15T12:56:05;9.40;;;1.33;;
53801;SDS011;39709;53.334;6.534;2023-04-15T12:58:31;13.85;;;1.70;;
53801;SDS011;39709;53.334;6.534;2023-04-15T13:00:57;11.75;;;1.55;;
53801;SDS011;39709;53.334;6.534;2023-04-15T13:03:23;10.23;;;1.53;;
53801;SDS011;39709;53.334;6.534;2023-04-15T13:05:48;8.85;;;1.48;;
53801;SDS011;39709;53.334;6.534;2023-04-15T13:08:14;10.80;;;1.57;;
53801;SDS011;39709;53.334;6.534;2023-04-15T13:10:40;12.35;;;1.83;;
53801;SDS011;39709;53.334;6.534;2023-04-15T13:13:06;10.98;;;1.52;;
53801;SDS011;39709;53.334;6.534;2023-04-15T13:15:32;9.13;;;1.30;;
53801;SDS011;39709;53.334;6.534;2023-04-15T13:17:58;9.65;;;1.77;;
53801;SDS011;39709;53.334;6.534;2023-04-15T13:20:24;12.33;;;1.80;;
53801;SDS011;39709;53.334;6.534;2023-04-15T13:22:51;11.73;;;1.90;;
53801;SDS011;39709;53.334;6.534;2023-04-15T13:25:17;10.95;;;1.70;;
53801;SDS011;39709;53.334;6.534;2023-04-15T13:27:43;8.63;;;1.63;;
53801;SDS011;39709;53.334;6.534;2023-04-15T13:30:09;13.27;;;1.90;;
53801;SDS011;39709;53.334;6.534;2023-04-15T13:32:35;14.35;;;1.70;;
53801;SDS011;39709;53.334;6.534;2023-04-15T13:35:00;13.03;;;2.07;;
53801;SDS011;39709;53.334;6.534;2023-04-15T13:37:27;13.00;;;1.80;;
53801;SDS011;39709;53.334;6.534;2023-04-15T13:39:53;15.90;;;2.00;;
53801;SDS011;39709;53.334;6.534;2023-04-15T13:42:20;11.18;;;2.00;;
53801;SDS011;39709;53.334;6.534;2023-04-15T13:44:49;9.90;;;1.50;;
53801;SDS011;39709;53.334;6.534;2023-04-15T13:47:18;14.65;;;2.55;;
53801;SDS011;39709;53.334;6.534;2023-04-15T13:49:43;18.63;;;2.30;;
53801;SDS011;39709;53.334;6.534;2023-04-15T13:52:10;8.77;;;1.55;;
53801;SDS011;39709;53.334;6.534;2023-04-15T13:54:36;11.40;;;1.75;;
53801;SDS011;39709;53.334;6.534;2023-04-15T13:57:02;11.77;;;1.70;;
53801;SDS011;39709;53.334;6.534;2023-04-15T13:59:28;10.05;;;1.38;;
53801;SDS011;39709;53.334;6.534;2023-04-15T14:01:53;11.23;;;1.80;;
53801;SDS011;39709;53.334;6.534;2023-04-15T14:04:19;12.93;;;1.92;;
53801;SDS011;39709;53.334;6.534;2023-04-15T14:06:45;12.70;;;1.73;;
53801;SDS011;39709;53.334;6.534;2023-04-15T14:09:10;9.85;;;1.65;;
53801;SDS011;39709;53.334;6.534;2023-04-15T14:11:39;10.00;;;2.00;;
53801;SDS011;39709;53.334;6.534;2023-04-15T14:14:05;13.52;;;2.03;;
53801;SDS011;39709;53.334;6.534;2023-04-15T14:16:34;14.13;;;2.20;;
53801;SDS011;39709;53.334;6.534;2023-04-15T14:19:00;10.43;;;2.30;;
53801;SDS011;39709;53.334;6.534;2023-04-15T14:21:26;12.90;;;2.20;;
53801;SDS011;39709;53.334;6.534;2023-04-15T14:23:53;9.60;;;2.00;;
53801;SDS011;39709;53.334;6.534;2023-04-15T14:26:18;14.30;;;1.90;;
53801;SDS011;39709;53.334;6.534;2023-04-15T14:28:44;9.50;;;2.07;;
53801;SDS011;39709;53.334;6.534;2023-04-15T14:31:10;14.65;;;2.10;;
53801;SDS011;39709;53.334;6.534;2023-04-15T14:33:36;13.83;;;2.40;;
53801;SDS011;39709;53.334;6.534;2023-04-15T14:36:02;14.90;;;3.00;;
53801;SDS011;39709;53.334;6.534;2023-04-15T14:38:28;14.45;;;2.60;;
53801;SDS011;39709;53.334;6.534;2023-04-15T14:40:53;13.93;;;2.40;;
53801;SDS011;39709;53.334;6.534;2023-04-15T14:43:19;15.45;;;2.75;;
53801;SDS011;39709;53.334;6.534;2023-04-15T14:45:45;13.68;;;2.53;;
53801;SDS011;39709;53.334;6.534;2023-04-15T14:48:11;14.50;;;2.40;;
53801;SDS011;39709;53.334;6.534;2023-04-15T14:50:37;17.40;;;3.00;;
53801;SDS011;39709;53.334;6.534;2023-04-15T14:53:04;21.67;;;3.53;;
53801;SDS011;39709;53.334;6.534;2023-04-15T14:55:29;18.77;;;2.37;;
53801;SDS011;39709;53.334;6.534;2023-04-15T14:57:55;14.90;;;3.15;;
53801;SDS011;39709;53.334;6.534;2023-04-15T15:00:21;17.30;;;2.53;;
53801;SDS011;39709;53.334;6.534;2023-04-15T15:02:46;16.95;;;2.50;;